Time;durP1;ratioP1;P1;durP2;ratioP2;P2;SDS_P1;SDS_P2;PMS_P1;PMS_P2;Temp;Humidity;BMP_temperature;BMP_pressure;BME280_temperature;BME280_humidity;BME280_pressure;Samples;Min_cycle;Max_cycle;Signal;HPM_P1;HPM_P2
2021/11/18 00:00:49;;;;;;;32.27;15.44;;;;;;;;;;367920;144;857204;-54
2021/11/18 00:01:52;;;;;;;33.98;15.04;;;;;;;;;;367124;144;864900;-54
2021/11/18 00:02:54;;;;;;;38.92;16.79;;;;;;;;;;365825;144;857241;-56
2021/11/18 00:03:55;;;;;;;32.19;15.63;;;;;;;;;;366176;144;857263;-54
2021/11/18 00:04:57;;;;;;;30.49;14.70;;;;;;;;;;366228;144;864952;-54
2021/11/18 00:05:59;;;;;;;30.37;15.56;;;;;;;;;;368372;144;861767;-54
2021/11/18 00:07:00;;;;;;;30.94;16.26;;;;;;;;;;366923;144;865618;-54
2021/11/18 00:08:02;;;;;;;34.31;15.79;;;;;;;;;;369449;144;865943;-55
2021/11/18 00:09:04;;;;;;;34.14;16.95;;;;;;;;;;367141;144;857236;-54
2021/11/18 00:10:06;;;;;;;35.75;16.46;;;;;;;;;;366398;144;858071;-54
2021/11/18 00:11:09;;;;;;;32.49;17.29;;;;;;;;;;367263;144;857202;-54
2021/11/18 00:12:11;;;;;;;32.86;15.64;;;;;;;;;;370467;144;859119;-54
2021/11/18 00:13:14;;;;;;;34.09;16.44;;;;;;;;;;366768;144;858477;-53
2021/11/18 00:14:16;;;;;;;37.13;16.16;;;;;;;;;;367711;144;864977;-54
2021/11/18 00:15:18;;;;;;;33.48;15.78;;;;;;;;;;366235;144;858901;-54
2021/11/18 00:16:20;;;;;;;33.20;15.01;;;;;;;;;;369959;144;857515;-54
2021/11/18 00:17:21;;;;;;;27.14;15.44;;;;;;;;;;368532;144;857259;-55
2021/11/18 00:18:24;;;;;;;31.86;14.36;;;;;;;;;;369651;144;865011;-54
2021/11/18 00:19:26;;;;;;;31.52;16.64;;;;;;;;;;365710;144;866770;-54
2021/11/18 00:20:29;;;;;;;30.02;15.07;;;;;;;;;;360502;147;866255;-54
2021/11/18 00:21:32;;;;;;;32.91;16.32;;;;;;;;;;367352;144;858219;-53
2021/11/18 00:22:34;;;;;;;33.45;15.83;;;;;;;;;;366296;144;857297;-54
2021/11/18 00:23:37;;;;;;;31.83;14.86;;;;;;;;;;367246;144;857417;-56
2021/11/18 00:24:38;;;;;;;31.05;15.78;;;;;;;;;;366618;144;865014;-56
2021/11/18 00:25:40;;;;;;;36.96;16.69;;;;;;;;;;366084;144;865111;-56
2021/11/18 00:26:42;;;;;;;34.43;16.59;;;;;;;;;;365891;144;865053;-56
2021/11/18 00:27:43;;;;;;;32.86;16.10;;;;;;;;;;365850;144;864270;-56
2021/11/18 00:28:45;;;;;;;30.37;15.66;;;;;;;;;;366303;144;857223;-56
2021/11/18 00:29:47;;;;;;;38.94;16.14;;;;;;;;;;365827;147;864950;-56
2021/11/18 00:30:48;;;;;;;35.73;17.95;;;;;;;;;;366780;144;859895;-56
2021/11/18 00:31:50;;;;;;;33.81;15.59;;;;;;;;;;366897;144;865865;-56
2021/11/18 00:32:52;;;;;;;30.91;15.56;;;;;;;;;;366288;144;865630;-55
2021/11/18 00:33:53;;;;;;;35.44;16.54;;;;;;;;;;365476;146;863940;-57
2021/11/18 00:34:55;;;;;;;36.80;16.86;;;;;;;;;;365351;145;865028;-54
2021/11/18 00:35:56;;;;;;;51.88;20.13;;;;;;;;;;366188;146;864900;-55
2021/11/18 00:36:58;;;;;;;40.51;19.42;;;;;;;;;;364962;145;866792;-56
2021/11/18 00:38:00;;;;;;;45.43;19.79;;;;;;;;;;365318;146;857766;-53
2021/11/18 00:39:05;;;;;;;48.90;21.11;;;;;;;;;;366453;145;864778;-53
2021/11/18 00:40:07;;;;;;;46.51;18.89;;;;;;;;;;365692;147;866330;-55
2021/11/18 00:41:09;;;;;;;44.30;19.10;;;;;;;;;;364548;145;859208;-55
2021/11/18 00:42:10;;;;;;;42.06;17.99;;;;;;;;;;365373;146;857962;-54
2021/11/18 00:43:12;;;;;;;46.30;18.66;;;;;;;;;;365635;145;865233;-56
2021/11/18 00:44:13;;;;;;;46.94;17.40;;;;;;;;;;365691;145;864719;-56
2021/11/18 00:45:15;;;;;;;42.47;17.83;;;;;;;;;;364849;146;864823;-54
2021/11/18 00:46:17;;;;;;;42.43;18.28;;;;;;;;;;362613;146;866489;-55
2021/11/18 00:47:18;;;;;;;38.13;18.04;;;;;;;;;;365534;146;857322;-54
2021/11/18 00:48:20;;;;;;;44.25;18.54;;;;;;;;;;363371;146;863444;-55
2021/11/18 00:49:22;;;;;;;41.88;18.75;;;;;;;;;;364688;145;865658;-54
2021/11/18 00:50:26;;;;;;;43.47;18.50;;;;;;;;;;363239;145;866889;-54
2021/11/18 00:51:28;;;;;;;43.77;18.57;;;;;;;;;;363470;145;857800;-54
2021/11/18 00:52:29;;;;;;;39.09;17.51;;;;;;;;;;362995;146;866017;-54
2021/11/18 00:53:31;;;;;;;38.59;17.79;;;;;;;;;;361264;146;864816;-57
2021/11/18 00:54:33;;;;;;;42.06;17.73;;;;;;;;;;363821;146;864746;-53
2021/11/18 00:55:34;;;;;;;37.17;18.14;;;;;;;;;;364060;146;858890;-54
2021/11/18 00:56:36;;;;;;;43.23;17.49;;;;;;;;;;365438;144;864616;-55
2021/11/18 00:57:38;;;;;;;37.30;17.05;;;;;;;;;;365767;145;857479;-55
2021/11/18 00:58:39;;;;;;;38.03;17.65;;;;;;;;;;365572;145;864650;-54
2021/11/18 00:59:41;;;;;;;36.01;17.75;;;;;;;;;;364755;146;858043;-55
2021/11/18 01:00:43;;;;;;;31.96;14.84;;;;;;;;;;364547;147;860978;-55
2021/11/18 01:01:45;;;;;;;34.27;15.82;;;;;;;;;;362577;146;865023;-55
2021/11/18 01:02:48;;;;;;;41.67;17.84;;;;;;;;;;364986;146;857098;-54
2021/11/18 01:03:49;;;;;;;39.71;17.80;;;;;;;;;;365730;145;857110;-54
2021/11/18 01:04:51;;;;;;;40.22;18.54;;;;;;;;;;366565;145;857523;-55
2021/11/18 01:05:53;;;;;;;37.28;17.32;;;;;;;;;;365449;145;864222;-56
2021/11/18 01:06:54;;;;;;;36.98;16.97;;;;;;;;;;364464;146;861901;-55
2021/11/18 01:07:56;;;;;;;34.41;16.72;;;;;;;;;;365201;146;858879;-54
2021/11/18 01:08:58;;;;;;;35.47;17.26;;;;;;;;;;364434;145;866761;-54
2021/11/18 01:09:59;;;;;;;38.29;16.73;;;;;;;;;;363505;145;858898;-54
2021/11/18 01:11:03;;;;;;;38.79;16.79;;;;;;;;;;366110;147;865644;-55
2021/11/18 01:12:05;;;;;;;34.66;16.86;;;;;;;;;;365617;144;865220;-54
2021/11/18 01:13:07;;;;;;;34.57;16.03;;;;;;;;;;365623;145;857676;-55
2021/11/18 01:14:10;;;;;;;37.17;17.57;;;;;;;;;;363309;146;859129;-55
2021/11/18 01:15:13;;;;;;;36.34;15.85;;;;;;;;;;365148;146;859350;-54
2021/11/18 01:16:16;;;;;;;40.21;18.37;;;;;;;;;;363361;146;867132;-55
2021/11/18 01:17:18;;;;;;;41.95;18.32;;;;;;;;;;364412;145;857682;-54
2021/11/18 01:18:19;;;;;;;41.00;17.78;;;;;;;;;;366217;145;859864;-54
2021/11/18 01:19:21;;;;;;;43.30;18.95;;;;;;;;;;364411;145;866633;-54
2021/11/18 01:20:23;;;;;;;36.87;17.61;;;;;;;;;;364661;145;864971;-54
2021/11/18 01:21:25;;;;;;;39.68;18.07;;;;;;;;;;364602;146;857291;-54
2021/11/18 01:22:26;;;;;;;37.06;17.54;;;;;;;;;;365616;145;858148;-54
2021/11/18 01:23:29;;;;;;;41.21;17.94;;;;;;;;;;364911;146;864990;-54
2021/11/18 01:24:31;;;;;;;43.18;18.44;;;;;;;;;;364434;146;864850;-54
2021/11/18 01:25:32;;;;;;;43.54;18.64;;;;;;;;;;366995;145;857186;-54
2021/11/18 01:26:35;;;;;;;38.97;18.54;;;;;;;;;;365235;146;866626;-54
2021/11/18 01:27:36;;;;;;;37.96;17.52;;;;;;;;;;365667;145;858891;-54
2021/11/18 01:28:38;;;;;;;72.09;24.35;;;;;;;;;;365640;146;867493;-54
2021/11/18 01:29:39;;;;;;;63.01;22.97;;;;;;;;;;365387;144;864956;-54
2021/11/18 01:30:41;;;;;;;39.07;17.36;;;;;;;;;;364934;145;865052;-54
2021/11/18 01:31:43;;;;;;;41.22;17.77;;;;;;;;;;363193;145;864894;-53
2021/11/18 01:32:44;;;;;;;38.89;18.03;;;;;;;;;;365415;145;857198;-54
2021/11/18 01:33:46;;;;;;;40.07;17.41;;;;;;;;;;367759;144;865109;-54
2021/11/18 01:34:47;;;;;;;39.53;18.05;;;;;;;;;;369733;144;865601;-54
2021/11/18 01:35:49;;;;;;;41.53;18.32;;;;;;;;;;368545;144;864741;-54
2021/11/18 01:36:51;;;;;;;42.88;18.71;;;;;;;;;;366983;144;864670;-55
2021/11/18 01:37:52;;;;;;;37.67;18.80;;;;;;;;;;366340;144;865319;-54
2021/11/18 01:38:54;;;;;;;39.40;18.69;;;;;;;;;;367868;144;864056;-54
2021/11/18 01:39:56;;;;;;;36.99;17.50;;;;;;;;;;365979;144;857197;-54
2021/11/18 01:40:58;;;;;;;38.99;17.20;;;;;;;;;;367791;144;865377;-54
2021/11/18 01:41:59;;;;;;;40.05;17.75;;;;;;;;;;366797;144;858112;-54
2021/11/18 01:43:01;;;;;;;40.36;17.73;;;;;;;;;;368716;144;860192;-54
2021/11/18 01:44:04;;;;;;;43.48;19.47;;;;;;;;;;367099;144;864960;-55
2021/11/18 01:45:06;;;;;;;38.22;17.08;;;;;;;;;;366375;144;863764;-57
2021/11/18 01:46:11;;;;;;;37.99;17.32;;;;;;;;;;366459;144;858590;-55
2021/11/18 01:47:13;;;;;;;37.86;17.70;;;;;;;;;;368511;144;857369;-54
2021/11/18 01:48:15;;;;;;;80.38;27.53;;;;;;;;;;367280;144;857215;-56
2021/11/18 01:49:16;;;;;;;53.29;19.69;;;;;;;;;;367584;144;859237;-55
2021/11/18 01:50:20;;;;;;;45.15;18.46;;;;;;;;;;366184;144;864848;-54
2021/11/18 01:51:29;;;;;;;46.99;20.23;;;;;;;;;;367989;144;857181;-54
2021/11/18 01:52:30;;;;;;;49.67;19.07;;;;;;;;;;367959;144;857777;-54
2021/11/18 01:53:36;;;;;;;47.19;19.59;;;;;;;;;;367329;144;857412;-54
2021/11/18 01:54:37;;;;;;;51.71;20.54;;;;;;;;;;365611;144;866884;-54
2021/11/18 01:55:39;;;;;;;50.30;21.34;;;;;;;;;;363087;147;857941;-54
2021/11/18 01:56:42;;;;;;;51.05;20.07;;;;;;;;;;364825;144;857644;-55
2021/11/18 01:57:43;;;;;;;39.37;18.71;;;;;;;;;;366514;144;857348;-56
2021/11/18 01:58:47;;;;;;;44.00;19.20;;;;;;;;;;369569;144;857323;-56
2021/11/18 01:59:48;;;;;;;56.06;23.44;;;;;;;;;;368505;144;866652;-56
2021/11/18 02:00:52;;;;;;;53.29;22.40;;;;;;;;;;366204;144;864904;-56
2021/11/18 02:01:55;;;;;;;43.98;19.52;;;;;;;;;;366879;144;865009;-56
2021/11/18 02:02:57;;;;;;;35.56;16.43;;;;;;;;;;365791;144;856172;-57
2021/11/18 02:03:58;;;;;;;38.07;16.58;;;;;;;;;;365778;144;857186;-55
2021/11/18 02:05:19;;;;;;;33.37;16.74;;;;;;;;;;366593;144;857006;-55
2021/11/18 02:06:30;;;;;;;35.90;16.47;;;;;;;;;;367181;144;867038;-55
2021/11/18 02:07:31;;;;;;;35.32;16.12;;;;;;;;;;366358;144;858475;-56
2021/11/18 02:08:33;;;;;;;32.03;16.94;;;;;;;;;;366931;144;858647;-54
2021/11/18 02:09:36;;;;;;;32.53;16.09;;;;;;;;;;368259;144;864899;-54
2021/11/18 02:10:39;;;;;;;31.65;16.64;;;;;;;;;;366715;144;866843;-56
2021/11/18 02:11:42;;;;;;;33.02;17.80;;;;;;;;;;366262;144;865100;-56
2021/11/18 02:12:44;;;;;;;31.88;15.34;;;;;;;;;;365782;144;859503;-56
2021/11/18 02:13:45;;;;;;;36.64;16.64;;;;;;;;;;366467;144;857788;-56
2021/11/18 02:14:47;;;;;;;37.40;16.96;;;;;;;;;;369330;144;865618;-54
2021/11/18 02:15:50;;;;;;;33.63;17.11;;;;;;;;;;366279;144;864916;-54
2021/11/18 02:16:54;;;;;;;32.20;17.04;;;;;;;;;;367418;144;864878;-55
2021/11/18 02:17:57;;;;;;;29.79;16.34;;;;;;;;;;366606;144;857972;-54
2021/11/18 02:18:59;;;;;;;35.16;16.79;;;;;;;;;;367499;144;857589;-56
2021/11/18 02:20:01;;;;;;;32.06;16.41;;;;;;;;;;366252;144;866497;-54
2021/11/18 02:21:04;;;;;;;32.72;16.87;;;;;;;;;;365855;144;864997;-55
2021/11/18 02:22:05;;;;;;;31.28;16.07;;;;;;;;;;365992;144;857282;-55
2021/11/18 02:23:12;;;;;;;34.92;16.56;;;;;;;;;;369045;144;857221;-56
2021/11/18 02:24:16;;;;;;;33.85;16.73;;;;;;;;;;368059;144;866107;-57
2021/11/18 02:25:17;;;;;;;40.59;17.14;;;;;;;;;;365946;144;857353;-55
2021/11/18 02:26:20;;;;;;;30.88;16.87;;;;;;;;;;366755;144;857253;-54
2021/11/18 02:27:22;;;;;;;34.31;16.67;;;;;;;;;;366217;144;859303;-54
2021/11/18 02:28:24;;;;;;;35.64;17.31;;;;;;;;;;365732;144;857629;-54
2021/11/18 02:29:26;;;;;;;34.13;17.86;;;;;;;;;;365998;144;857633;-55
2021/11/18 02:30:28;;;;;;;33.00;17.81;;;;;;;;;;365976;144;857242;-54
2021/11/18 02:31:31;;;;;;;33.56;16.25;;;;;;;;;;366704;144;859982;-55
2021/11/18 02:32:34;;;;;;;37.41;17.42;;;;;;;;;;369386;144;865079;-55
2021/11/18 02:33:35;;;;;;;30.48;15.99;;;;;;;;;;367164;144;860592;-55
2021/11/18 02:34:43;;;;;;;34.94;16.41;;;;;;;;;;365686;144;857258;-55
2021/11/18 02:35:45;;;;;;;30.20;17.19;;;;;;;;;;362150;146;865614;-55
2021/11/18 02:36:47;;;;;;;36.29;16.19;;;;;;;;;;363753;144;858475;-54
2021/11/18 02:37:49;;;;;;;37.37;18.97;;;;;;;;;;362415;144;857306;-57
2021/11/18 02:38:51;;;;;;;33.23;16.33;;;;;;;;;;364864;144;859182;-55
2021/11/18 02:39:53;;;;;;;33.97;17.45;;;;;;;;;;363268;144;856172;-55
2021/11/18 02:40:55;;;;;;;35.91;17.07;;;;;;;;;;364083;144;864191;-54
2021/11/18 02:41:56;;;;;;;33.86;16.93;;;;;;;;;;365304;144;857093;-55
2021/11/18 02:42:58;;;;;;;31.60;16.40;;;;;;;;;;362994;144;857302;-55
2021/11/18 02:44:00;;;;;;;37.26;16.66;;;;;;;;;;362963;144;857288;-54
2021/11/18 02:45:03;;;;;;;36.41;17.54;;;;;;;;;;361783;145;858539;-55
2021/11/18 02:46:05;;;;;;;35.99;17.01;;;;;;;;;;362088;146;859924;-55
2021/11/18 02:47:11;;;;;;;32.04;16.41;;;;;;;;;;363829;144;859357;-55
2021/11/18 02:48:10;;;;;;;35.30;16.17;;;;;;;;;;363344;145;864952;-56
2021/11/18 02:49:12;;;;;;;31.95;16.06;;;;;;;;;;364702;146;858135;-55
2021/11/18 02:50:16;;;;;;;31.95;17.13;;;;;;;;;;362050;145;859761;-56
2021/11/18 02:51:18;;;;;;;39.86;17.60;;;;;;;;;;362847;146;863984;-55
2021/11/18 02:52:25;;;;;;;28.43;15.94;;;;;;;;;;362280;144;860746;-53
2021/11/18 02:53:25;;;;;;;34.20;17.03;;;;;;;;;;364883;146;864911;-57
2021/11/18 02:54:27;;;;;;;36.91;16.56;;;;;;;;;;363719;144;857137;-54
2021/11/18 02:55:30;;;;;;;33.59;16.39;;;;;;;;;;364471;144;864972;-54
2021/11/18 02:56:32;;;;;;;41.13;16.43;;;;;;;;;;361900;147;857251;-53
2021/11/18 02:57:34;;;;;;;33.56;17.06;;;;;;;;;;365445;145;857368;-54
2021/11/18 02:58:36;;;;;;;32.94;17.22;;;;;;;;;;362674;144;859248;-55
2021/11/18 02:59:37;;;;;;;30.28;16.56;;;;;;;;;;358494;147;865955;-53
2021/11/18 03:00:41;;;;;;;34.17;17.23;;;;;;;;;;358309;147;865836;-54
2021/11/18 03:01:43;;;;;;;32.71;15.88;;;;;;;;;;363650;144;858840;-54
2021/11/18 03:02:45;;;;;;;33.14;16.41;;;;;;;;;;363582;144;866894;-53
2021/11/18 03:03:46;;;;;;;35.03;16.69;;;;;;;;;;364456;144;860543;-54
2021/11/18 03:04:48;;;;;;;29.97;16.36;;;;;;;;;;362730;144;864975;-54
2021/11/18 03:05:50;;;;;;;29.64;15.94;;;;;;;;;;364423;144;864947;-54
2021/11/18 03:06:53;;;;;;;31.10;16.00;;;;;;;;;;363296;144;865400;-53
2021/11/18 03:07:57;;;;;;;29.56;15.37;;;;;;;;;;363102;144;857650;-56
2021/11/18 03:08:58;;;;;;;32.73;16.30;;;;;;;;;;363622;144;857095;-54
2021/11/18 03:10:00;;;;;;;32.15;16.56;;;;;;;;;;364010;144;860016;-57
2021/11/18 03:11:01;;;;;;;33.51;17.77;;;;;;;;;;362561;145;866686;-54
2021/11/18 03:12:03;;;;;;;33.66;16.34;;;;;;;;;;363148;144;857322;-55
2021/11/18 03:13:05;;;;;;;39.02;17.87;;;;;;;;;;362931;145;864351;-54
2021/11/18 03:14:07;;;;;;;36.55;15.99;;;;;;;;;;365241;145;857204;-54
2021/11/18 03:15:10;;;;;;;33.59;16.64;;;;;;;;;;362145;144;865519;-55
2021/11/18 03:16:13;;;;;;;37.06;17.71;;;;;;;;;;361705;144;866776;-54
2021/11/18 03:17:14;;;;;;;31.49;17.43;;;;;;;;;;350951;150;857652;-56
2021/11/18 03:18:16;;;;;;;33.85;16.74;;;;;;;;;;352183;150;864594;-54
2021/11/18 03:19:17;;;;;;;34.30;16.96;;;;;;;;;;349685;150;866868;-54
2021/11/18 03:20:20;;;;;;;36.07;16.71;;;;;;;;;;346501;150;859601;-53
2021/11/18 03:21:23;;;;;;;35.97;17.02;;;;;;;;;;347260;152;865073;-54
2021/11/18 03:22:25;;;;;;;37.33;17.46;;;;;;;;;;348113;149;857348;-54
2021/11/18 03:23:27;;;;;;;36.76;16.44;;;;;;;;;;349404;150;868199;-55
2021/11/18 03:24:28;;;;;;;37.67;18.50;;;;;;;;;;351745;150;865350;-54
2021/11/18 03:25:31;;;;;;;33.41;17.31;;;;;;;;;;356358;147;857306;-53
2021/11/18 03:26:33;;;;;;;30.49;16.65;;;;;;;;;;355482;148;867291;-54
2021/11/18 03:27:35;;;;;;;33.16;17.74;;;;;;;;;;355738;149;857310;-54
2021/11/18 03:28:37;;;;;;;35.93;17.89;;;;;;;;;;356039;147;865069;-53
2021/11/18 03:29:39;;;;;;;35.69;17.71;;;;;;;;;;355480;148;857463;-53
2021/11/18 03:30:41;;;;;;;32.70;16.98;;;;;;;;;;355585;148;866140;-54
2021/11/18 03:31:43;;;;;;;35.68;17.71;;;;;;;;;;353544;148;865897;-54
2021/11/18 03:32:45;;;;;;;32.42;18.03;;;;;;;;;;355800;149;864997;-54
2021/11/18 03:33:48;;;;;;;41.99;17.92;;;;;;;;;;355428;148;863982;-55
2021/11/18 03:34:50;;;;;;;33.51;16.82;;;;;;;;;;354342;147;864657;-55
2021/11/18 03:35:51;;;;;;;35.01;17.05;;;;;;;;;;354323;147;864147;-55
2021/11/18 03:36:53;;;;;;;40.83;18.37;;;;;;;;;;354992;147;864326;-54
2021/11/18 03:37:55;;;;;;;37.14;16.79;;;;;;;;;;357919;148;858677;-54
2021/11/18 03:38:57;;;;;;;35.73;17.52;;;;;;;;;;356072;150;865415;-55
2021/11/18 03:39:58;;;;;;;32.38;16.56;;;;;;;;;;355445;147;857874;-55
2021/11/18 03:41:04;;;;;;;34.79;17.29;;;;;;;;;;355657;147;866781;-54
2021/11/18 03:42:07;;;;;;;37.81;18.73;;;;;;;;;;354397;149;866753;-54
2021/11/18 03:43:09;;;;;;;32.08;17.19;;;;;;;;;;355101;148;857598;-54
2021/11/18 03:44:11;;;;;;;40.72;18.32;;;;;;;;;;357504;147;859861;-54
2021/11/18 03:45:13;;;;;;;31.79;16.81;;;;;;;;;;356760;148;857460;-55
2021/11/18 03:46:16;;;;;;;37.95;17.44;;;;;;;;;;361812;147;858222;-55
2021/11/18 03:47:37;;;;;;;39.32;17.58;;;;;;;;;;355962;146;866203;-54
2021/11/18 03:48:39;;;;;;;34.97;17.69;;;;;;;;;;336264;156;865039;-55
2021/11/18 03:49:40;;;;;;;36.85;17.49;;;;;;;;;;337838;155;857721;-53
2021/11/18 03:50:43;;;;;;;28.35;16.47;;;;;;;;;;350721;152;858772;-54
2021/11/18 03:51:45;;;;;;;30.71;16.26;;;;;;;;;;346878;152;857271;-56
2021/11/18 03:52:46;;;;;;;36.76;18.21;;;;;;;;;;339494;157;857284;-56
2021/11/18 03:53:48;;;;;;;32.14;17.19;;;;;;;;;;346342;152;857160;-54
2021/11/18 03:54:50;;;;;;;28.54;16.45;;;;;;;;;;346078;152;864082;-54
2021/11/18 03:55:52;;;;;;;30.71;16.45;;;;;;;;;;346793;152;858626;-54
2021/11/18 03:56:54;;;;;;;34.77;17.35;;;;;;;;;;347786;152;865387;-55
2021/11/18 03:57:57;;;;;;;38.46;17.05;;;;;;;;;;345938;152;857326;-55
2021/11/18 03:58:59;;;;;;;34.08;16.49;;;;;;;;;;342552;155;866404;-55
2021/11/18 04:00:00;;;;;;;37.46;17.16;;;;;;;;;;344384;155;857397;-55
2021/11/18 04:01:02;;;;;;;34.79;16.98;;;;;;;;;;339839;155;866812;-56
2021/11/18 04:02:04;;;;;;;33.49;17.35;;;;;;;;;;340700;155;866987;-55
2021/11/18 04:03:06;;;;;;;36.83;17.78;;;;;;;;;;330155;158;857410;-54
2021/11/18 04:04:08;;;;;;;33.11;16.47;;;;;;;;;;334877;157;857610;-55
2021/11/18 04:05:10;;;;;;;33.77;17.35;;;;;;;;;;341501;155;857746;-56
2021/11/18 04:06:12;;;;;;;36.83;18.48;;;;;;;;;;336315;158;857278;-56
2021/11/18 04:07:14;;;;;;;34.86;16.69;;;;;;;;;;340022;155;860527;-55
2021/11/18 04:08:16;;;;;;;31.94;16.79;;;;;;;;;;348771;152;857253;-54
2021/11/18 04:09:17;;;;;;;30.44;17.32;;;;;;;;;;349973;152;866715;-54
2021/11/18 04:10:20;;;;;;;29.26;16.42;;;;;;;;;;348739;152;865821;-55
2021/11/18 04:11:24;;;;;;;32.84;16.54;;;;;;;;;;345955;149;857415;-60
2021/11/18 04:12:25;;;;;;;38.96;17.51;;;;;;;;;;347011;152;860111;-54
2021/11/18 04:13:28;;;;;;;28.40;16.63;;;;;;;;;;342360;154;859998;-54
2021/11/18 04:14:30;;;;;;;31.64;17.23;;;;;;;;;;344271;152;865040;-54
2021/11/18 04:15:31;;;;;;;32.23;16.60;;;;;;;;;;345704;153;858305;-54
2021/11/18 04:16:33;;;;;;;35.09;17.01;;;;;;;;;;344252;153;857352;-57
2021/11/18 04:17:35;;;;;;;33.60;16.57;;;;;;;;;;346123;153;857154;-55
2021/11/18 04:18:36;;;;;;;36.61;17.60;;;;;;;;;;335599;157;858285;-53
2021/11/18 04:19:38;;;;;;;32.85;16.09;;;;;;;;;;340493;155;866278;-55
2021/11/18 04:20:40;;;;;;;35.85;17.09;;;;;;;;;;340466;154;865873;-55
2021/11/18 04:21:42;;;;;;;30.89;16.20;;;;;;;;;;340982;153;857414;-56
2021/11/18 04:22:44;;;;;;;33.50;18.15;;;;;;;;;;341114;155;864990;-54
2021/11/18 04:23:45;;;;;;;34.45;16.33;;;;;;;;;;340058;155;856456;-55
2021/11/18 04:24:48;;;;;;;33.71;17.00;;;;;;;;;;337194;154;857650;-54
2021/11/18 04:25:49;;;;;;;32.79;16.66;;;;;;;;;;340334;154;857185;-55
2021/11/18 04:26:51;;;;;;;38.00;17.11;;;;;;;;;;340653;155;865092;-56
2021/11/18 04:27:53;;;;;;;36.60;17.32;;;;;;;;;;343054;153;858655;-56
2021/11/18 04:28:54;;;;;;;28.71;15.67;;;;;;;;;;341730;154;863496;-55
2021/11/18 04:29:56;;;;;;;34.51;15.79;;;;;;;;;;341028;154;864919;-55
2021/11/18 04:30:59;;;;;;;31.56;16.60;;;;;;;;;;343322;153;865021;-55
2021/11/18 04:32:03;;;;;;;31.07;16.02;;;;;;;;;;341864;155;865410;-54
2021/11/18 04:33:05;;;;;;;34.26;17.59;;;;;;;;;;340178;155;864001;-59
2021/11/18 04:34:06;;;;;;;34.61;16.45;;;;;;;;;;342841;155;866833;-56
2021/11/18 04:35:08;;;;;;;29.24;16.67;;;;;;;;;;341913;154;865009;-55
2021/11/18 04:36:11;;;;;;;37.71;16.40;;;;;;;;;;340059;155;857291;-55
2021/11/18 04:37:13;;;;;;;35.59;16.95;;;;;;;;;;337178;155;857269;-56
2021/11/18 04:38:14;;;;;;;35.20;17.66;;;;;;;;;;339153;158;858909;-57
2021/11/18 04:39:16;;;;;;;33.57;16.21;;;;;;;;;;339921;155;865820;-57
2021/11/18 04:40:19;;;;;;;35.26;16.61;;;;;;;;;;335713;158;866725;-57
2021/11/18 04:41:21;;;;;;;34.73;17.47;;;;;;;;;;337344;157;857420;-55
2021/11/18 04:42:23;;;;;;;30.14;17.21;;;;;;;;;;343565;153;859599;-56
2021/11/18 04:43:25;;;;;;;32.09;16.94;;;;;;;;;;342643;153;857437;-58
2021/11/18 04:44:27;;;;;;;32.21;16.10;;;;;;;;;;341645;154;864897;-60
2021/11/18 04:45:28;;;;;;;34.18;17.00;;;;;;;;;;342404;154;859364;-60
2021/11/18 04:46:30;;;;;;;34.52;15.94;;;;;;;;;;343697;153;865342;-56
2021/11/18 04:47:31;;;;;;;32.31;15.70;;;;;;;;;;343689;154;866064;-55
2021/11/18 04:48:33;;;;;;;34.11;16.09;;;;;;;;;;340348;153;864877;-56
2021/11/18 04:49:35;;;;;;;30.91;16.10;;;;;;;;;;336587;155;865064;-56
2021/11/18 04:50:37;;;;;;;38.38;18.23;;;;;;;;;;337018;157;857292;-57
2021/11/18 04:51:39;;;;;;;38.26;17.26;;;;;;;;;;337103;158;857454;-56
2021/11/18 04:52:41;;;;;;;35.22;16.89;;;;;;;;;;335378;155;864991;-56
2021/11/18 04:53:42;;;;;;;31.00;16.52;;;;;;;;;;337552;156;865216;-56
2021/11/18 04:54:44;;;;;;;37.25;17.48;;;;;;;;;;338879;156;857200;-57
2021/11/18 04:55:46;;;;;;;42.50;16.96;;;;;;;;;;337460;158;864718;-56
2021/11/18 04:56:47;;;;;;;34.79;17.66;;;;;;;;;;337488;155;857626;-57
2021/11/18 04:57:49;;;;;;;32.21;17.11;;;;;;;;;;337542;156;864426;-58
2021/11/18 04:58:51;;;;;;;38.17;17.53;;;;;;;;;;338206;155;866092;-58
2021/11/18 04:59:52;;;;;;;35.31;18.10;;;;;;;;;;337174;155;859662;-59
2021/11/18 05:00:54;;;;;;;35.66;18.42;;;;;;;;;;338163;155;858580;-56
2021/11/18 05:01:56;;;;;;;38.64;17.29;;;;;;;;;;337142;157;866674;-55
2021/11/18 05:02:58;;;;;;;34.87;17.98;;;;;;;;;;334391;158;857190;-55
2021/11/18 05:04:00;;;;;;;35.21;17.51;;;;;;;;;;336957;155;859964;-57
2021/11/18 05:05:02;;;;;;;34.15;16.76;;;;;;;;;;338578;156;858357;-58
2021/11/18 05:06:05;;;;;;;38.90;18.52;;;;;;;;;;336401;156;857985;-59
2021/11/18 05:07:06;;;;;;;35.57;17.57;;;;;;;;;;336649;155;866712;-55
2021/11/18 05:08:08;;;;;;;35.82;16.74;;;;;;;;;;339679;155;857285;-58
2021/11/18 05:09:10;;;;;;;38.06;17.17;;;;;;;;;;337877;158;866894;-58
2021/11/18 05:10:13;;;;;;;36.63;17.87;;;;;;;;;;337019;158;857372;-58
2021/11/18 05:11:15;;;;;;;37.84;18.32;;;;;;;;;;337516;155;857343;-59
2021/11/18 05:12:18;;;;;;;33.84;17.98;;;;;;;;;;340040;155;859023;-58
2021/11/18 05:13:20;;;;;;;35.82;18.16;;;;;;;;;;334624;159;859240;-60
2021/11/18 05:14:22;;;;;;;37.55;17.70;;;;;;;;;;337620;155;866873;-58
2021/11/18 05:15:24;;;;;;;43.86;18.07;;;;;;;;;;339788;156;866726;-57
2021/11/18 05:16:27;;;;;;;37.56;17.99;;;;;;;;;;340339;156;866687;-60
2021/11/18 05:17:28;;;;;;;40.32;18.89;;;;;;;;;;339671;154;857266;-56
2021/11/18 05:18:50;;;;;;;39.44;18.17;;;;;;;;;;340678;154;866196;-58
2021/11/18 05:19:51;;;;;;;42.96;18.71;;;;;;;;;;341154;154;864183;-58
2021/11/18 05:20:53;;;;;;;38.32;18.06;;;;;;;;;;340469;155;857932;-58
2021/11/18 05:21:56;;;;;;;45.09;20.12;;;;;;;;;;339411;155;863997;-58
2021/11/18 05:22:58;;;;;;;38.44;19.71;;;;;;;;;;334743;158;856392;-57
2021/11/18 05:24:01;;;;;;;38.08;19.51;;;;;;;;;;334286;158;857434;-58
2021/11/18 05:25:03;;;;;;;42.08;20.22;;;;;;;;;;339460;155;866535;-57
2021/11/18 05:26:05;;;;;;;44.37;21.96;;;;;;;;;;340066;158;857233;-55
2021/11/18 05:27:07;;;;;;;45.99;21.10;;;;;;;;;;341199;155;860009;-55
2021/11/18 05:28:08;;;;;;;48.45;20.37;;;;;;;;;;342850;155;865272;-56
2021/11/18 05:29:10;;;;;;;38.78;18.97;;;;;;;;;;339854;155;864319;-59
2021/11/18 05:30:13;;;;;;;39.59;19.49;;;;;;;;;;340796;158;865830;-58
2021/11/18 05:31:15;;;;;;;39.59;18.29;;;;;;;;;;339014;155;857338;-58
2021/11/18 05:32:17;;;;;;;44.70;20.71;;;;;;;;;;340216;155;858513;-56
2021/11/18 05:33:19;;;;;;;42.87;19.65;;;;;;;;;;336404;156;857332;-61
2021/11/18 05:34:21;;;;;;;34.89;17.63;;;;;;;;;;339757;158;857262;-61
2021/11/18 05:35:23;;;;;;;47.51;18.95;;;;;;;;;;339075;155;858908;-59
2021/11/18 05:36:26;;;;;;;41.46;19.85;;;;;;;;;;338094;156;865005;-59
2021/11/18 05:37:28;;;;;;;45.95;20.20;;;;;;;;;;338903;155;864898;-58
2021/11/18 05:38:29;;;;;;;40.36;19.33;;;;;;;;;;337245;155;867433;-59
2021/11/18 05:39:31;;;;;;;39.83;20.77;;;;;;;;;;340087;155;865776;-57
2021/11/18 05:40:34;;;;;;;38.41;18.89;;;;;;;;;;339834;155;858968;-57
2021/11/18 05:41:36;;;;;;;46.16;19.44;;;;;;;;;;339868;155;859043;-57
2021/11/18 05:42:38;;;;;;;36.24;18.30;;;;;;;;;;337422;155;858694;-56
2021/11/18 05:43:42;;;;;;;39.12;19.23;;;;;;;;;;339582;155;865029;-57
2021/11/18 05:44:43;;;;;;;41.42;19.16;;;;;;;;;;340043;158;865161;-59
2021/11/18 05:45:44;;;;;;;37.33;19.61;;;;;;;;;;339476;155;865555;-56
2021/11/18 05:46:46;;;;;;;45.71;21.22;;;;;;;;;;339534;155;864828;-57
2021/11/18 05:47:48;;;;;;;35.24;18.95;;;;;;;;;;339357;155;864049;-57
2021/11/18 05:48:49;;;;;;;41.73;19.52;;;;;;;;;;337897;155;864546;-57
2021/11/18 05:49:51;;;;;;;36.42;17.59;;;;;;;;;;339506;155;864733;-56
2021/11/18 05:50:54;;;;;;;43.76;19.75;;;;;;;;;;341091;155;864955;-56
2021/11/18 05:51:56;;;;;;;36.94;19.93;;;;;;;;;;339315;155;863714;-55
2021/11/18 05:52:58;;;;;;;43.28;19.93;;;;;;;;;;339760;155;865080;-55
2021/11/18 05:53:59;;;;;;;40.27;20.38;;;;;;;;;;339008;155;864870;-54
2021/11/18 05:55:01;;;;;;;39.25;20.01;;;;;;;;;;338723;157;864985;-54
2021/11/18 05:56:04;;;;;;;37.75;18.18;;;;;;;;;;338780;155;863943;-54
2021/11/18 05:57:06;;;;;;;45.69;20.54;;;;;;;;;;339346;155;856093;-54